createdAt,value
2022-07-29T03:48:22.887Z,47.58
2022-07-29T03:51:33.965Z,47.58
2022-07-29T03:54:36.599Z,48.72
2022-07-29T03:57:40.573Z,48.41
2022-07-29T04:00:44.134Z,48.65
2022-07-29T04:03:47.097Z,47.98
2022-07-29T04:06:49.378Z,48.26
2022-07-29T04:09:51.766Z,48.52
2022-07-29T04:12:54.006Z,48.32
2022-07-29T04:15:56.618Z,48.38
2022-07-29T04:18:58.885Z,47.93
2022-07-29T04:22:02.159Z,47.76
2022-07-29T04:25:04.679Z,47.88
2022-07-29T04:28:08.000Z,48.02
2022-07-29T04:31:10.994Z,48.04
2022-07-29T04:34:13.913Z,48.03
2022-07-29T04:37:16.247Z,47.88
2022-07-29T04:40:18.685Z,48.28
2022-07-29T04:43:23.236Z,48.37
2022-07-29T04:46:25.841Z,48.29
2022-07-29T04:49:29.285Z,48.69
2022-07-29T04:52:31.769Z,49.11
2022-07-29T04:55:33.938Z,48.77
2022-07-29T04:58:36.921Z,48.80
2022-07-29T05:01:39.122Z,48.97
2022-07-29T05:04:41.499Z,49.39
2022-07-29T05:07:43.588Z,48.92
2022-07-29T05:10:46.115Z,48.75
2022-07-29T05:13:48.182Z,49.18
2022-07-29T05:16:52.113Z,48.99
2022-07-29T05:19:54.286Z,49.24
2022-07-29T05:22:57.946Z,49.28
2022-07-29T05:26:00.087Z,49.41
2022-07-29T05:29:02.418Z,49.18
2022-07-29T05:32:05.055Z,49.25
2022-07-29T05:35:07.832Z,48.80
2022-07-29T05:38:09.934Z,48.53
2022-07-29T05:41:12.537Z,48.37
2022-07-29T05:44:15.086Z,47.89
2022-07-29T05:47:17.741Z,47.68
2022-07-29T05:50:21.265Z,47.83
2022-07-29T05:53:23.641Z,47.59
2022-07-29T05:56:25.893Z,46.62
2022-07-29T05:59:30.446Z,46.50
2022-07-29T06:02:32.886Z,45.98
2022-07-29T06:05:35.224Z,45.02
2022-07-29T06:08:37.896Z,44.71
2022-07-29T06:11:40.498Z,43.65
2022-07-29T06:14:42.603Z,44.85
2022-07-29T06:17:59.857Z,44.17
2022-07-29T06:21:09.570Z,44.39
2022-07-29T06:24:13.832Z,44.66
2022-07-29T06:27:17.227Z,43.97
2022-07-29T06:30:19.575Z,43.82
2022-07-29T06:33:21.693Z,43.61
2022-07-29T06:36:25.111Z,43.24
2022-07-29T06:39:27.261Z,43.63
2022-07-29T06:42:29.593Z,43.36
2022-07-29T06:45:34.978Z,42.68
2022-07-29T06:48:38.089Z,43.56
2022-07-29T06:51:40.285Z,42.90
2022-07-29T06:54:48.855Z,44.51
2022-07-29T06:57:51.352Z,43.02
2022-07-29T07:00:54.286Z,42.32
2022-07-29T07:03:57.073Z,42.29
2022-07-29T07:07:00.467Z,42.08
2022-07-29T07:10:02.667Z,42.01
2022-07-29T07:13:05.558Z,43.80
2022-07-29T07:16:07.999Z,41.30
2022-07-29T07:19:10.398Z,41.53
2022-07-29T07:22:12.458Z,41.71
2022-07-29T07:25:14.936Z,41.47
2022-07-29T07:28:17.035Z,41.83
2022-07-29T07:31:19.468Z,42.12
2022-07-29T07:34:29.310Z,41.43
2022-07-29T07:37:32.574Z,41.45
2022-07-29T07:40:34.702Z,41.98
2022-07-29T07:43:37.090Z,41.16
2022-07-29T07:46:39.168Z,41.05
2022-07-29T07:49:42.165Z,41.02
2022-07-29T07:52:49.155Z,40.87
2022-07-29T07:59:13.576Z,40.46
2022-07-29T08:02:16.111Z,40.31
2022-07-29T08:05:19.005Z,41.02
2022-07-29T08:08:21.403Z,40.79
2022-07-29T08:11:23.829Z,40.83
2022-07-29T08:14:26.269Z,40.82
2022-07-29T08:17:28.908Z,41.06
2022-07-29T08:20:32.978Z,41.38
2022-07-29T08:23:51.473Z,40.42
2022-07-29T08:26:53.675Z,40.99
2022-07-29T08:29:56.812Z,40.34
2022-07-29T08:32:59.531Z,40.41
2022-07-29T08:36:01.912Z,39.97
2022-07-29T08:39:04.420Z,40.34
2022-07-29T08:42:06.905Z,40.31
2022-07-29T08:45:09.634Z,39.89
2022-07-29T08:48:16.089Z,40.08
2022-07-29T08:51:20.138Z,40.33
2022-07-29T08:54:24.913Z,40.17
2022-07-29T08:57:27.893Z,40.11
2022-07-29T09:00:30.786Z,40.00
2022-07-29T09:03:35.448Z,39.79
2022-07-29T09:06:40.187Z,38.77
2022-07-29T09:09:43.760Z,38.88
2022-07-29T09:12:46.548Z,38.81
2022-07-29T09:15:48.655Z,38.20
2022-07-29T09:18:51.091Z,37.89
2022-07-29T09:22:00.319Z,37.78
2022-07-29T09:25:02.902Z,37.42
2022-07-29T09:28:15.975Z,36.95
2022-07-29T09:31:18.359Z,36.95
2022-07-29T09:34:29.356Z,36.85
2022-07-29T09:37:31.747Z,36.46
2022-07-29T09:40:33.849Z,37.00
2022-07-29T09:43:37.838Z,35.45
2022-07-29T09:46:40.033Z,37.14
2022-07-29T09:49:55.730Z,35.34
2022-07-29T09:52:57.818Z,35.50
2022-07-29T09:56:00.421Z,35.48
2022-07-29T09:59:09.855Z,35.41
2022-07-29T10:02:16.724Z,34.90
2022-07-29T10:05:36.587Z,34.65
2022-07-29T10:08:39.197Z,35.88
2022-07-29T10:11:49.243Z,33.88
2022-07-29T10:14:59.379Z,33.86
2022-07-29T10:18:01.726Z,33.00
2022-07-29T10:21:03.969Z,33.46
2022-07-29T10:24:07.441Z,33.54
2022-07-29T10:27:17.222Z,34.11
2022-07-29T10:30:21.090Z,33.59
2022-07-29T10:33:56.605Z,33.56
2022-07-29T10:37:13.701Z,34.63
2022-07-29T10:40:55.057Z,33.39
2022-07-29T10:44:04.567Z,32.68
2022-07-29T10:47:06.965Z,32.76
2022-07-29T10:50:12.797Z,33.13
2022-07-29T10:53:19.643Z,32.47
2022-07-29T10:56:37.106Z,32.83
2022-07-29T10:59:41.167Z,33.33
2022-07-29T11:02:45.063Z,32.27
2022-07-29T11:05:56.478Z,31.85
2022-07-29T11:09:25.567Z,31.88
2022-07-29T11:12:36.750Z,30.95
2022-07-29T11:16:08.345Z,30.67
2022-07-29T11:19:13.751Z,29.91
2022-07-29T11:22:36.833Z,31.75
2022-07-29T11:25:50.629Z,30.00
2022-07-29T11:29:19.681Z,30.58
2022-07-29T11:32:29.173Z,29.77
2022-07-29T11:35:38.280Z,30.02
2022-07-29T11:38:42.437Z,30.04
2022-07-29T11:41:44.774Z,30.43
2022-07-29T11:44:57.413Z,29.75
2022-07-29T11:48:27.841Z,30.14
2022-07-29T11:51:32.832Z,29.89
2022-07-29T11:54:57.137Z,30.12
2022-07-29T11:58:04.033Z,30.08
2022-07-29T12:01:07.218Z,30.20
2022-07-29T12:04:09.776Z,31.35
2022-07-29T12:07:15.518Z,29.32
2022-07-29T12:10:19.928Z,30.40
2022-07-29T12:13:39.972Z,29.92
2022-07-29T12:16:42.332Z,30.08
2022-07-29T12:19:46.196Z,30.25
2022-07-29T12:22:50.206Z,30.25
2022-07-29T12:25:53.058Z,29.44
2022-07-29T12:28:56.708Z,30.57
2022-07-29T12:31:59.423Z,29.45
2022-07-29T12:35:10.719Z,29.46
2022-07-29T12:38:14.045Z,30.55
2022-07-29T12:41:16.469Z,30.77
2022-07-29T12:44:18.561Z,29.42
2022-07-29T12:47:21.939Z,29.24
2022-07-29T12:50:26.567Z,31.18
2022-07-29T12:53:29.037Z,30.16
2022-07-29T12:56:42.856Z,30.13
2022-07-29T13:00:10.941Z,30.00
2022-07-29T13:03:13.029Z,30.02
2022-07-29T13:06:35.425Z,29.60
2022-07-29T13:09:42.534Z,29.49
2022-07-29T13:13:10.382Z,29.87
2022-07-29T13:16:12.511Z,29.21
2022-07-29T13:19:15.107Z,29.10
2022-07-29T13:22:22.691Z,28.23
2022-07-29T13:25:30.677Z,28.94
2022-07-29T13:28:32.739Z,29.48
2022-07-29T13:31:35.067Z,29.23
2022-07-29T13:34:37.139Z,29.95
2022-07-29T13:37:39.693Z,29.23
2022-07-29T13:40:42.458Z,29.56
2022-07-29T13:43:44.842Z,29.83
2022-07-29T13:46:48.298Z,29.45
2022-07-29T13:49:50.964Z,29.31
2022-07-29T13:52:53.591Z,28.97
2022-07-29T13:55:56.244Z,28.81
2022-07-29T13:58:58.378Z,29.24
2022-07-29T14:02:01.124Z,28.91
2022-07-29T14:05:08.038Z,28.94
2022-07-29T14:08:10.756Z,29.07
2022-07-29T14:11:13.247Z,29.01
2022-07-29T14:14:15.333Z,29.23
2022-07-29T14:17:17.904Z,28.77
2022-07-29T14:20:20.071Z,28.67
2022-07-29T14:23:22.437Z,28.84
2022-07-29T14:26:25.147Z,29.13
2022-07-29T14:29:37.483Z,28.85
2022-07-29T14:32:40.669Z,29.11
